Time;durP1;ratioP1;P1;durP2;ratioP2;P2;SDS_P1;SDS_P2;PMS_P1;PMS_P2;Temp;Humidity;BMP_temperature;BMP_pressure;BME280_temperature;BME280_humidity;BME280_pressure;Samples;Min_cycle;Max_cycle;Signal;HPM_P1;HPM_P2
2024/03/26 00:00:52;;;;;;;1.40;0.70;;;;;;;10.10;59.84;99942.80;110650;1266;23271;-56
2024/03/26 00:03:20;;;;;;;1.20;0.70;;;;;;;10.19;59.73;99949.45;110635;1257;22762;-57
2024/03/26 00:05:49;;;;;;;1.50;0.70;;;;;;;10.24;59.57;99952.75;110626;1263;23174;-56
2024/03/26 00:08:15;;;;;;;3.60;0.60;;;;;;;10.28;59.55;99958.33;109894;1263;1002473;-57
2024/03/26 00:10:42;;;;;;;1.50;0.70;;;;;;;10.29;59.37;99963.16;110438;1259;22109;-56
2024/03/26 00:13:09;;;;;;;2.80;0.70;;;;;;;10.32;59.33;99973.78;110653;1263;22401;-57
2024/03/26 00:15:36;;;;;;;3.30;0.70;;;;;;;10.35;59.45;99980.81;110627;1257;22273;-57
2024/03/26 00:18:03;;;;;;;2.60;1.00;;;;;;;10.38;59.31;99988.14;110470;1259;22359;-58
2024/03/26 00:20:30;;;;;;;0.70;0.70;;;;;;;10.38;59.06;99983.98;110696;1253;22114;-58
2024/03/26 00:22:56;;;;;;;1.20;0.70;;;;;;;10.40;58.91;99985.12;110693;1263;22109;-59
2024/03/26 00:25:23;;;;;;;1.40;0.50;;;;;;;10.41;58.67;99988.58;110668;1255;22479;-60
2024/03/26 00:27:50;;;;;;;1.00;0.60;;;;;;;10.42;58.60;99992.02;110662;1262;22351;-60
2024/03/26 00:30:17;;;;;;;0.70;0.60;;;;;;;10.44;58.90;99993.84;110426;1258;22454;-61
2024/03/26 00:32:43;;;;;;;1.10;0.80;;;;;;;10.44;58.66;99986.41;109935;1254;1002361;-62
2024/03/26 00:35:10;;;;;;;1.20;0.60;;;;;;;10.44;58.58;99993.33;110654;1256;22342;-63
2024/03/26 00:37:37;;;;;;;1.20;0.70;;;;;;;10.47;58.70;100001.54;110582;1257;22343;-64
2024/03/26 00:40:05;;;;;;;1.30;0.80;;;;;;;10.48;58.48;100002.38;110669;1263;22990;-64
2024/03/26 00:42:32;;;;;;;1.40;1.00;;;;;;;10.50;58.77;100009.95;109713;1253;1003098;-67
2024/03/26 00:44:59;;;;;;;1.10;0.90;;;;;;;10.49;58.75;100008.05;110655;1256;22179;-68
2024/03/26 00:47:25;;;;;;;1.20;0.80;;;;;;;10.52;58.63;100018.88;110653;1256;22259;-69
2024/03/26 00:49:52;;;;;;;0.70;0.70;;;;;;;10.53;58.73;100025.98;110673;1257;22409;-74
2024/03/26 00:52:19;;;;;;;1.10;0.60;;;;;;;10.52;58.53;100032.09;110620;1257;22916;-75
2024/03/26 00:54:46;;;;;;;1.90;1.00;;;;;;;10.51;58.48;100025.33;110619;1257;23035;-76
2024/03/26 00:57:13;;;;;;;1.50;0.80;;;;;;;10.54;58.42;100031.50;110618;1256;22170;-81
2024/03/26 00:59:39;;;;;;;0.60;0.60;;;;;;;10.56;58.60;100034.02;110664;1254;22248;-75
2024/03/26 01:02:06;;;;;;;3.20;1.00;;;;;;;10.57;58.39;100027.55;110652;1256;22277;-72
2024/03/26 01:04:33;;;;;;;2.00;0.90;;;;;;;10.59;58.42;100045.70;110454;1260;23195;-70
2024/03/26 01:07:00;;;;;;;2.60;1.20;;;;;;;10.58;58.37;100045.04;110666;1263;22145;-70
2024/03/26 01:09:27;;;;;;;2.00;1.00;;;;;;;10.60;58.51;100047.23;109930;1254;1002474;-68
2024/03/26 01:11:53;;;;;;;2.10;1.20;;;;;;;10.59;58.33;100042.94;110686;1256;22585;-70
2024/03/26 01:14:20;;;;;;;1.30;0.90;;;;;;;10.58;58.40;100050.61;110279;1260;22120;-70
2024/03/26 01:16:47;;;;;;;3.00;0.90;;;;;;;10.59;58.20;100064.43;110501;1266;22120;-69
2024/03/26 01:19:13;;;;;;;1.10;0.90;;;;;;;10.61;58.17;100058.13;110645;1263;22397;-69
2024/03/26 01:21:40;;;;;;;2.20;1.10;;;;;;;10.61;58.12;100059.20;110582;1267;23016;-69
2024/03/26 01:24:07;;;;;;;4.00;1.40;;;;;;;10.61;58.25;100069.94;109874;1255;1002719;-69
2024/03/26 01:26:34;;;;;;;1.40;1.20;;;;;;;10.63;58.35;100077.15;110650;1263;22206;-69
2024/03/26 01:29:01;;;;;;;1.90;1.20;;;;;;;10.64;58.29;100073.80;110669;1257;22827;-68
2024/03/26 01:31:28;;;;;;;2.60;1.20;;;;;;;10.65;58.23;100078.80;110639;1257;22855;-68
2024/03/26 01:33:54;;;;;;;2.60;1.40;;;;;;;10.67;58.05;100085.69;110629;1256;22400;-66
2024/03/26 01:36:21;;;;;;;2.70;1.80;;;;;;;10.65;57.89;100080.73;110537;1266;22143;-68
2024/03/26 01:38:48;;;;;;;2.20;1.50;;;;;;;10.66;57.81;100088.65;110612;1257;22350;-64
2024/03/26 01:41:15;;;;;;;1.50;1.20;;;;;;;10.69;57.50;100090.66;109719;1275;1002328;-63
2024/03/26 01:43:41;;;;;;;2.80;1.20;;;;;;;10.70;57.38;100100.35;110623;1266;22113;-63
2024/03/26 01:46:08;;;;;;;2.40;1.50;;;;;;;10.72;57.48;100098.20;110497;1266;22366;-62
2024/03/26 01:48:35;;;;;;;3.10;1.60;;;;;;;10.72;57.32;100105.13;110642;1256;22555;-60
2024/03/26 01:51:02;;;;;;;1.40;1.30;;;;;;;10.75;57.30;100108.15;110675;1256;22118;-60
2024/03/26 01:53:29;;;;;;;2.30;1.70;;;;;;;10.76;57.28;100108.44;109927;1257;1002098;-60
2024/03/26 01:55:55;;;;;;;2.30;1.80;;;;;;;10.76;57.26;100109.69;110726;1257;22119;-59
2024/03/26 01:58:25;;;;;;;2.90;2.00;;;;;;;10.79;57.17;100117.56;110603;1263;22909;-59
2024/03/26 02:00:54;;;;;;;3.70;1.90;;;;;;;10.80;57.20;100123.95;110361;1259;22264;-59
2024/03/26 02:03:20;;;;;;;3.80;2.00;;;;;;;10.80;57.11;100120.83;110564;1256;22383;-59
2024/03/26 02:05:47;;;;;;;4.40;2.10;;;;;;;10.79;57.27;100125.36;110707;1266;22382;-61
2024/03/26 02:08:14;;;;;;;2.00;1.80;;;;;;;10.79;57.36;100133.69;110502;1262;22422;-59
2024/03/26 02:10:41;;;;;;;1.40;1.30;;;;;;;10.77;57.35;100133.41;110662;1256;22865;-59
2024/03/26 02:13:07;;;;;;;2.90;1.40;;;;;;;10.77;57.28;100145.55;110433;1256;289183;-59
2024/03/26 02:15:34;;;;;;;2.80;1.50;;;;;;;10.75;57.16;100166.80;110699;1257;22153;-60
2024/03/26 02:18:01;;;;;;;2.80;1.50;;;;;;;10.74;57.26;100163.86;110510;1266;22304;-60
2024/03/26 02:20:28;;;;;;;3.60;1.70;;;;;;;10.74;57.30;100167.35;110163;1263;1003048;-61
2024/03/26 02:22:56;;;;;;;3.30;1.90;;;;;;;10.75;57.55;100178.26;110631;1256;22315;-61
2024/03/26 02:25:23;;;;;;;3.10;1.50;;;;;;;10.75;57.49;100178.77;110660;1250;22071;-62
2024/03/26 02:27:50;;;;;;;3.70;1.70;;;;;;;10.74;57.75;100187.63;110622;1263;22115;-63
2024/03/26 02:30:16;;;;;;;3.00;1.30;;;;;;;10.73;57.65;100186.61;110666;1264;22415;-64
2024/03/26 02:32:43;;;;;;;2.80;1.70;;;;;;;10.75;57.89;100197.17;109895;1256;1002338;-65
2024/03/26 02:35:10;;;;;;;3.40;1.40;;;;;;;10.76;57.89;100202.33;110659;1263;22309;-64
2024/03/26 02:37:36;;;;;;;3.30;2.00;;;;;;;10.77;57.86;100202.80;110638;1257;22786;-66
2024/03/26 02:40:05;;;;;;;4.60;1.50;;;;;;;10.76;57.78;100204.91;110590;1263;22163;-66
2024/03/26 02:42:32;;;;;;;2.50;1.50;;;;;;;10.76;57.83;100221.21;110432;1260;22460;-67
2024/03/26 02:44:58;;;;;;;2.60;2.00;;;;;;;10.76;57.93;100218.28;110645;1256;23077;-68
2024/03/26 02:47:25;;;;;;;3.50;1.50;;;;;;;10.75;57.80;100223.87;110469;1259;22305;-66
2024/03/26 02:49:52;;;;;;;2.80;1.40;;;;;;;10.77;57.81;100225.20;110622;1256;22242;-67
2024/03/26 02:52:19;;;;;;;2.40;1.60;;;;;;;10.77;57.59;100228.13;109895;1256;1002424;-66
2024/03/26 02:54:46;;;;;;;2.50;1.50;;;;;;;10.78;57.53;100231.94;110473;1273;23368;-64
2024/03/26 02:57:12;;;;;;;2.40;1.60;;;;;;;10.80;57.51;100249.21;110717;1266;22103;-64
2024/03/26 02:59:39;;;;;;;2.30;1.60;;;;;;;10.79;57.46;100239.52;110440;1257;22824;-63
2024/03/26 03:02:06;;;;;;;3.00;1.60;;;;;;;10.79;57.57;100249.42;110657;1257;22129;-62
2024/03/26 03:04:33;;;;;;;3.10;1.80;;;;;;;10.76;57.66;100252.62;110494;1275;22118;-61
2024/03/26 03:06:59;;;;;;;1.90;1.40;;;;;;;10.75;57.46;100268.64;109874;1257;1002722;-61
2024/03/26 03:09:26;;;;;;;1.90;1.60;;;;;;;10.74;57.38;100254.79;110597;1256;23112;-60
2024/03/26 03:11:53;;;;;;;1.70;1.30;;;;;;;10.73;57.18;100260.53;110690;1256;22984;-61
2024/03/26 03:14:19;;;;;;;3.10;1.70;;;;;;;10.74;57.19;100272.15;110665;1257;23098;-60
2024/03/26 03:16:46;;;;;;;3.30;1.60;;;;;;;10.72;57.31;100280.51;110430;1274;22358;-60
2024/03/26 03:19:13;;;;;;;2.80;1.30;;;;;;;10.71;57.03;100285.40;110680;1257;22246;-60
2024/03/26 03:21:40;;;;;;;1.90;1.40;;;;;;;10.71;56.98;100291.14;110577;1255;22129;-59
2024/03/26 03:24:06;;;;;;;1.40;1.30;;;;;;;10.71;56.83;100302.39;110688;1257;22330;-59
2024/03/26 03:26:33;;;;;;;2.10;1.80;;;;;;;10.71;56.93;100308.45;110573;1257;23190;-59
2024/03/26 03:29:00;;;;;;;1.40;1.30;;;;;;;10.73;56.52;100310.16;110401;1259;22390;-59
2024/03/26 03:31:27;;;;;;;3.90;1.50;;;;;;;10.74;56.58;100316.70;110639;1256;23111;-58
2024/03/26 03:33:54;;;;;;;3.10;1.70;;;;;;;10.77;56.48;100320.96;110649;1257;22308;-58
2024/03/26 03:36:20;;;;;;;3.10;1.60;;;;;;;10.76;56.54;100329.32;110613;1257;22411;-58
2024/03/26 03:38:47;;;;;;;3.20;1.70;;;;;;;10.78;56.37;100334.45;109785;1266;1002651;-58
2024/03/26 03:41:14;;;;;;;1.80;1.40;;;;;;;10.79;56.16;100338.59;110671;1257;22138;-58
2024/03/26 03:43:41;;;;;;;2.50;1.70;;;;;;;10.82;56.32;100345.95;110621;1257;22344;-57
2024/03/26 03:46:08;;;;;;;2.30;1.40;;;;;;;10.83;56.13;100346.80;110675;1263;22413;-58
2024/03/26 03:48:35;;;;;;;1.70;1.20;;;;;;;10.84;56.14;100358.38;110654;1263;22431;-57
2024/03/26 03:51:03;;;;;;;2.10;1.50;;;;;;;10.85;56.16;100364.27;110649;1263;22358;-58
2024/03/26 03:53:30;;;;;;;2.00;1.70;;;;;;;10.90;56.07;100366.91;110652;1251;23235;-57
2024/03/26 03:55:57;;;;;;;1.50;1.20;;;;;;;10.90;55.87;100374.52;110588;1263;22332;-57
2024/03/26 03:58:23;;;;;;;1.90;1.20;;;;;;;10.93;55.70;100377.41;110613;1260;22123;-56
2024/03/26 04:00:50;;;;;;;2.90;1.10;;;;;;;10.96;55.78;100374.89;110645;1267;22134;-56
2024/03/26 04:03:17;;;;;;;2.00;1.30;;;;;;;10.97;55.74;100389.95;110613;1260;22114;-56
2024/03/26 04:05:44;;;;;;;2.20;1.40;;;;;;;10.97;55.57;100381.96;110532;1266;22912;-56
2024/03/26 04:08:10;;;;;;;3.30;1.20;;;;;;;10.99;55.44;100399.44;110663;1259;22965;-56
2024/03/26 04:10:40;;;;;;;1.60;0.90;;;;;;;10.98;55.31;100389.58;110585;1251;22280;-56
2024/03/26 04:13:07;;;;;;;1.20;0.90;;;;;;;11.00;55.33;100404.95;109861;1257;1002459;-57
2024/03/26 04:15:43;;;;;;;1.30;1.00;;;;;;;11.00;55.27;100404.77;110611;1256;22899;-56
2024/03/26 04:18:10;;;;;;;2.00;1.40;;;;;;;11.01;55.50;100394.66;110616;1260;22448;-56
2024/03/26 04:20:36;;;;;;;1.40;0.90;;;;;;;11.03;55.21;100410.92;110632;1257;22106;-56
2024/03/26 04:23:03;;;;;;;1.30;1.00;;;;;;;11.06;55.20;100419.53;110628;1254;22388;-56
2024/03/26 04:25:30;;;;;;;1.70;1.20;;;;;;;11.06;54.94;100417.45;109639;1267;1003182;-55
2024/03/26 04:27:57;;;;;;;2.30;1.30;;;;;;;11.11;55.16;100430.83;110602;1256;22411;-56
2024/03/26 04:30:24;;;;;;;3.80;1.10;;;;;;;11.13;55.13;100431.80;110639;1263;22730;-56
2024/03/26 04:32:51;;;;;;;2.20;1.20;;;;;;;11.15;54.78;100437.33;110645;1251;22781;-56
2024/03/26 04:35:18;;;;;;;2.40;1.10;;;;;;;11.16;54.82;100443.02;110634;1257;22753;-56
2024/03/26 04:37:45;;;;;;;1.20;0.90;;;;;;;11.17;54.60;100446.64;110601;1256;22258;-56
2024/03/26 04:40:12;;;;;;;1.50;0.90;;;;;;;11.19;54.68;100454.39;110642;1256;22409;-55
2024/03/26 04:42:39;;;;;;;1.60;1.10;;;;;;;11.21;54.54;100460.41;110669;1263;22417;-55
2024/03/26 04:45:06;;;;;;;1.00;0.90;;;;;;;11.21;54.54;100467.16;110662;1254;23034;-56
2024/03/26 04:47:34;;;;;;;1.70;1.10;;;;;;;11.24;54.39;100473.16;110641;1263;22179;-55
2024/03/26 04:50:01;;;;;;;2.70;1.20;;;;;;;11.24;54.31;100483.77;109851;1254;1002223;-55
2024/03/26 04:52:28;;;;;;;1.90;1.20;;;;;;;11.26;54.23;100493.41;110500;1255;22443;-55
2024/03/26 04:54:55;;;;;;;1.80;1.40;;;;;;;11.28;54.33;100499.27;110661;1256;22381;-55
2024/03/26 04:57:22;;;;;;;3.00;1.80;;;;;;;11.27;54.09;100504.14;110659;1263;22404;-55
2024/03/26 04:59:49;;;;;;;1.90;1.40;;;;;;;11.29;54.10;100521.11;110557;1267;22356;-55
2024/03/26 05:02:15;;;;;;;2.10;1.30;;;;;;;11.31;54.15;100516.89;110632;1260;22120;-55
2024/03/26 05:04:42;;;;;;;1.80;1.40;;;;;;;11.33;54.28;100517.69;110416;1257;22958;-55
2024/03/26 05:07:09;;;;;;;5.00;1.60;;;;;;;11.34;53.90;100519.23;110670;1256;22098;-55
2024/03/26 05:09:36;;;;;;;2.00;1.30;;;;;;;11.33;53.96;100522.71;110695;1257;22325;-55
2024/03/26 05:12:02;;;;;;;1.90;1.10;;;;;;;11.35;53.84;100531.36;110673;1263;22280;-55
2024/03/26 05:14:29;;;;;;;1.70;1.30;;;;;;;11.36;53.63;100526.27;110682;1258;22189;-55
2024/03/26 05:16:57;;;;;;;1.70;1.50;;;;;;;11.38;53.29;100533.90;110437;1257;23159;-55
2024/03/26 05:19:24;;;;;;;2.90;1.60;;;;;;;11.36;53.23;100527.88;110647;1256;22407;-55
2024/03/26 05:21:51;;;;;;;2.40;1.70;;;;;;;11.38;53.24;100536.30;110629;1257;22313;-55
2024/03/26 05:24:17;;;;;;;1.80;1.10;;;;;;;11.38;52.89;100535.96;109919;1254;1007367;-56
2024/03/26 05:26:44;;;;;;;1.40;1.20;;;;;;;11.41;52.84;100546.98;109861;1251;1003030;-55
2024/03/26 05:29:11;;;;;;;3.80;1.30;;;;;;;11.45;52.79;100543.75;110661;1251;22099;-55
2024/03/26 05:31:38;;;;;;;2.40;1.50;;;;;;;11.48;52.81;100552.00;110661;1266;22315;-56
2024/03/26 05:34:05;;;;;;;1.40;1.30;;;;;;;11.49;52.51;100552.67;110594;1254;22344;-55
2024/03/26 05:36:31;;;;;;;2.00;1.60;;;;;;;11.51;52.38;100544.83;110661;1254;22776;-55
2024/03/26 05:38:58;;;;;;;4.80;1.50;;;;;;;11.54;52.42;100552.89;109942;1254;1002681;-55
2024/03/26 05:41:25;;;;;;;4.30;1.40;;;;;;;11.59;52.20;100563.87;109842;1266;1002386;-55
2024/03/26 05:43:53;;;;;;;6.90;1.70;;;;;;;11.61;51.87;100568.48;110646;1255;22383;-56
2024/03/26 05:46:20;;;;;;;2.90;1.50;;;;;;;11.66;52.09;100581.22;110587;1258;22348;-55
2024/03/26 05:48:46;;;;;;;3.40;1.50;;;;;;;11.69;51.76;100582.38;110608;1255;22197;-55
2024/03/26 05:51:13;;;;;;;3.20;1.70;;;;;;;11.71;51.59;100589.95;110632;1254;22743;-55
2024/03/26 05:53:40;;;;;;;5.40;2.30;;;;;;;11.72;51.39;100595.13;110636;1251;22253;-55
2024/03/26 05:56:07;;;;;;;3.10;2.10;;;;;;;11.73;51.12;100601.54;110725;1254;22453;-55
2024/03/26 05:58:35;;;;;;;2.90;2.00;;;;;;;11.74;50.88;100605.48;110635;1263;22135;-55
2024/03/26 06:01:03;;;;;;;3.90;2.30;;;;;;;11.77;50.57;100613.60;110585;1253;22332;-55
2024/03/26 06:03:31;;;;;;;3.60;2.30;;;;;;;11.77;50.63;100625.05;109869;1261;1002412;-55
2024/03/26 06:05:58;;;;;;;2.40;2.00;;;;;;;11.80;50.43;100626.01;110637;1251;22393;-55
2024/03/26 06:08:25;;;;;;;5.00;2.00;;;;;;;11.85;50.29;100632.82;109571;1273;1002211;-57
2024/03/26 06:10:52;;;;;;;3.30;2.20;;;;;;;11.89;49.94;100631.66;110575;1274;22473;-57
2024/03/26 06:13:19;;;;;;;3.70;2.00;;;;;;;11.91;49.59;100632.48;110436;1269;22276;-57
2024/03/26 06:15:46;;;;;;;3.40;2.30;;;;;;;11.91;49.61;100633.88;110554;1269;22525;-56
2024/03/26 06:18:13;;;;;;;3.90;2.50;;;;;;;11.92;49.49;100643.89;109930;1264;1002855;-56
2024/03/26 06:20:40;;;;;;;4.30;2.70;;;;;;;11.93;49.31;100652.06;110729;1261;22093;-57
2024/03/26 06:23:06;;;;;;;4.20;2.20;;;;;;;11.91;49.22;100653.31;110638;1254;22886;-57
2024/03/26 06:25:33;;;;;;;3.20;2.10;;;;;;;11.92;49.33;100661.84;110669;1251;23202;-57
2024/03/26 06:28:00;;;;;;;2.50;2.10;;;;;;;11.92;49.30;100661.64;109857;1253;1002463;-56
2024/03/26 06:30:27;;;;;;;3.80;2.00;;;;;;;11.93;49.13;100661.43;110686;1264;22347;-57
2024/03/26 06:32:53;;;;;;;2.90;2.00;;;;;;;11.97;49.38;100667.40;110676;1261;23042;-58
2024/03/26 06:35:21;;;;;;;2.60;1.90;;;;;;;12.02;49.20;100667.07;110602;1263;22288;-56
2024/03/26 06:37:47;;;;;;;5.20;1.90;;;;;;;12.09;48.80;100676.60;109913;1263;1002648;-57
2024/03/26 06:44:11;;;;;;;4.00;2.00;;;;;;;11.23;50.76;100696.02;104840;1288;558020;-57
2024/03/26 06:46:39;;;;;;;2.80;1.80;;;;;;;12.19;48.76;100704.47;105349;1272;1003652;-57
2024/03/26 06:49:05;;;;;;;3.10;1.80;;;;;;;12.28;48.36;100706.14;106320;1268;22533;-57
2024/03/26 06:51:33;;;;;;;3.30;2.10;;;;;;;12.30;48.15;100715.30;106228;1265;25510;-57
2024/03/26 06:53:59;;;;;;;2.50;1.60;;;;;;;12.32;47.97;100723.60;105946;1282;25402;-57
2024/03/26 06:56:27;;;;;;;3.90;1.70;;;;;;;12.32;47.82;100728.29;106216;1270;230427;-58
2024/03/26 06:58:54;;;;;;;2.60;1.70;;;;;;;12.32;47.98;100728.61;106218;1279;25378;-57
2024/03/26 07:01:21;;;;;;;2.10;1.70;;;;;;;12.34;48.16;100735.19;106447;1278;25356;-58
2024/03/26 07:03:48;;;;;;;2.70;1.70;;;;;;;12.36;48.54;100740.87;105633;1266;1002981;-57
2024/03/26 07:06:15;;;;;;;3.00;1.70;;;;;;;12.39;48.52;100746.34;106202;1278;24257;-58
2024/03/26 07:08:44;;;;;;;4.00;1.70;;;;;;;12.39;48.61;100753.13;105521;1267;1002943;-57
2024/03/26 07:11:11;;;;;;;1.90;1.50;;;;;;;12.37;48.60;100755.61;106271;1266;23913;-58
2024/03/26 07:13:38;;;;;;;4.20;1.90;;;;;;;12.38;48.49;100766.73;105427;1282;1003434;-58
2024/03/26 07:16:06;;;;;;;3.60;2.30;;;;;;;12.38;48.52;100764.98;106137;1279;23599;-56
2024/03/26 07:18:34;;;;;;;4.00;2.00;;;;;;;12.40;49.03;100766.84;106379;1266;25372;-57
2024/03/26 07:21:01;;;;;;;3.30;1.90;;;;;;;12.42;48.67;100768.52;106174;1280;24356;-56
2024/03/26 07:23:28;;;;;;;3.50;2.20;;;;;;;12.43;48.72;100775.27;106266;1285;25506;-57
2024/03/26 07:25:55;;;;;;;2.90;2.00;;;;;;;12.45;48.53;100778.01;106362;1282;24378;-56
2024/03/26 07:28:22;;;;;;;2.50;1.70;;;;;;;12.45;48.53;100784.77;105932;1285;25460;-56
2024/03/26 07:30:49;;;;;;;2.40;1.90;;;;;;;12.48;48.56;100791.13;105976;1285;25376;-56
2024/03/26 07:33:17;;;;;;;2.80;1.90;;;;;;;12.52;48.60;100795.02;105391;1282;1002916;-56
2024/03/26 07:35:44;;;;;;;2.40;1.60;;;;;;;12.55;48.24;100808.67;105853;1285;24242;-56
2024/03/26 07:38:11;;;;;;;2.50;1.60;;;;;;;12.60;47.97;100810.64;106173;1280;25455;-56
2024/03/26 07:40:38;;;;;;;2.00;1.70;;;;;;;12.64;48.47;100809.98;106392;1282;24225;-57
2024/03/26 07:43:05;;;;;;;3.30;1.60;;;;;;;12.68;48.17;100817.02;106279;1279;25417;-56
2024/03/26 07:45:47;;;;;;;3.30;1.70;;;;;;;12.73;47.61;100825.91;106376;1282;25380;-57
2024/03/26 07:48:15;;;;;;;2.30;1.50;;;;;;;12.77;47.48;100831.16;106303;1278;24415;-57
2024/03/26 07:50:42;;;;;;;3.90;1.70;;;;;;;12.82;47.59;100835.71;106488;1279;25384;-56
2024/03/26 07:53:09;;;;;;;2.80;1.50;;;;;;;12.87;47.35;100836.78;106469;1278;25424;-57
2024/03/26 07:55:36;;;;;;;2.40;1.40;;;;;;;12.92;47.03;100837.50;105804;1273;1003252;-57
2024/03/26 07:58:04;;;;;;;3.00;1.30;;;;;;;12.96;46.20;100834.95;106548;1264;25350;-57
2024/03/26 08:00:32;;;;;;;1.70;1.10;;;;;;;13.01;46.18;100837.05;107209;1268;23356;-56
2024/03/26 08:02:59;;;;;;;1.70;1.30;;;;;;;13.07;46.44;100836.22;107063;1266;25405;-56
2024/03/26 08:05:26;;;;;;;2.90;1.20;;;;;;;13.11;46.08;100831.92;106275;1271;1003477;-57
2024/03/26 08:07:53;;;;;;;1.60;1.00;;;;;;;13.15;46.11;100834.42;107078;1266;25375;-57
2024/03/26 08:10:21;;;;;;;2.00;1.10;;;;;;;13.19;46.18;100842.11;107094;1266;25421;-57
2024/03/26 08:12:48;;;;;;;3.20;1.40;;;;;;;13.26;46.56;100845.21;107115;1270;22668;-56
2024/03/26 08:15:17;;;;;;;1.90;1.50;;;;;;;13.32;45.98;100846.41;106411;1267;1003261;-57
2024/03/26 08:17:45;;;;;;;1.90;1.10;;;;;;;13.37;45.78;100848.35;106373;1272;1003423;-57
2024/03/26 08:20:13;;;;;;;1.10;0.90;;;;;;;13.42;46.10;100855.16;107161;1267;25359;-57
2024/03/26 08:22:42;;;;;;;2.90;1.20;;;;;;;13.47;46.15;100862.13;107188;1266;24259;-57
2024/03/26 08:25:10;;;;;;;3.00;1.10;;;;;;;13.51;45.84;100859.02;107002;1274;25334;-56
2024/03/26 08:27:39;;;;;;;2.00;1.00;;;;;;;13.57;46.34;100867.58;106816;1269;25372;-56
2024/03/26 08:30:10;;;;;;;3.20;1.60;;;;;;;13.59;46.09;100868.36;107179;1271;25335;-56
2024/03/26 08:32:37;;;;;;;1.10;0.90;;;;;;;13.62;45.81;100866.34;106951;1259;22524;-56
2024/03/26 08:35:08;;;;;;;2.50;1.20;;;;;;;13.66;45.87;100874.57;107466;1267;25353;-57
2024/03/26 08:37:37;;;;;;;3.30;1.10;;;;;;;13.72;45.69;100876.29;107268;1267;25411;-56
2024/03/26 08:40:08;;;;;;;3.00;1.20;;;;;;;13.77;44.92;100884.68;106339;1269;1002859;-56
2024/03/26 08:42:36;;;;;;;3.40;2.00;;;;;;;13.83;44.65;100890.39;107218;1266;25372;-57
2024/03/26 08:45:05;;;;;;;4.30;2.10;;;;;;;13.88;44.61;100892.16;107071;1274;25529;-57
2024/03/26 08:47:37;;;;;;;3.70;2.00;;;;;;;13.91;45.12;100898.49;106975;1272;25408;-57
2024/03/26 08:50:05;;;;;;;3.20;2.40;;;;;;;13.94;45.21;100904.50;107149;1272;25395;-56
2024/03/26 08:52:32;;;;;;;5.40;2.60;;;;;;;13.99;45.06;100907.33;106871;1267;25372;-57
2024/03/26 08:54:59;;;;;;;4.20;2.20;;;;;;;14.06;44.98;100909.19;106444;1269;1003177;-57
2024/03/26 08:57:26;;;;;;;4.20;2.40;;;;;;;14.11;44.39;100910.39;107147;1266;25423;-57
2024/03/26 08:59:53;;;;;;;2.80;2.00;;;;;;;14.17;44.65;100910.55;107038;1266;25341;-57
2024/03/26 09:02:21;;;;;;;6.30;2.20;;;;;;;14.20;44.59;100903.98;106866;1270;25504;-57
2024/03/26 09:04:49;;;;;;;3.00;1.80;;;;;;;14.23;44.65;100909.96;107173;1267;25372;-57
2024/03/26 09:07:17;;;;;;;2.70;1.70;;;;;;;14.28;44.50;100916.64;107127;1267;25400;-56
2024/03/26 09:09:44;;;;;;;5.00;2.30;;;;;;;14.30;43.75;100910.29;107131;1267;25421;-57
2024/03/26 09:12:11;;;;;;;3.50;2.20;;;;;;;14.34;43.57;100919.05;107081;1267;25372;-57
2024/03/26 09:14:38;;;;;;;3.10;2.10;;;;;;;14.37;43.06;100921.72;107041;1251;25493;-57
2024/03/26 09:17:05;;;;;;;4.40;2.20;;;;;;;14.40;43.22;100926.16;107222;1267;25453;-58
2024/03/26 09:19:32;;;;;;;3.70;2.40;;;;;;;14.44;43.44;100930.56;106535;1270;1003480;-57
2024/03/26 09:21:59;;;;;;;3.60;2.20;;;;;;;14.47;43.58;100928.35;106942;1271;25498;-57
2024/03/26 09:24:27;;;;;;;3.20;1.90;;;;;;;14.52;43.74;100935.87;107163;1270;25347;-57
2024/03/26 09:27:05;;;;;;;4.60;2.40;;;;;;;14.59;43.93;100933.52;107152;1267;25388;-57
2024/03/26 09:29:33;;;;;;;2.10;1.80;;;;;;;14.66;44.12;100938.71;106880;1267;25406;-57
2024/03/26 09:32:00;;;;;;;3.50;2.10;;;;;;;14.71;42.90;100933.30;106866;1273;23205;-57
2024/03/26 09:34:27;;;;;;;3.00;2.00;;;;;;;14.75;42.90;100932.27;107166;1267;25444;-58
2024/03/26 09:36:56;;;;;;;3.40;1.90;;;;;;;14.78;42.85;100933.55;107407;1267;25416;-57
2024/03/26 09:39:23;;;;;;;2.60;1.50;;;;;;;14.83;42.56;100932.15;107354;1267;25406;-57
2024/03/26 09:41:50;;;;;;;2.70;2.20;;;;;;;14.85;42.47;100939.77;106438;1269;1002900;-57
2024/03/26 09:44:17;;;;;;;2.50;1.80;;;;;;;14.85;41.52;100933.11;106921;1274;25343;-57
2024/03/26 09:46:44;;;;;;;1.80;1.30;;;;;;;14.88;41.93;100937.72;107255;1272;25353;-59
2024/03/26 09:49:11;;;;;;;2.50;1.50;;;;;;;14.92;41.73;100935.29;107047;1271;22507;-57
2024/03/26 09:51:40;;;;;;;3.80;1.80;;;;;;;14.97;41.80;100936.17;106958;1267;25347;-57
2024/03/26 09:54:07;;;;;;;4.50;2.00;;;;;;;15.03;42.63;100937.89;106989;1254;23136;-57
2024/03/26 09:56:34;;;;;;;3.90;1.80;;;;;;;15.06;42.48;100932.70;107111;1267;25420;-57
2024/03/26 09:59:01;;;;;;;2.20;1.80;;;;;;;15.08;42.12;100930.69;107017;1266;22521;-56
2024/03/26 10:01:28;;;;;;;2.80;1.60;;;;;;;15.11;41.48;100929.15;107016;1267;25410;-56
2024/03/26 10:03:56;;;;;;;3.20;1.90;;;;;;;15.14;41.60;100937.09;106868;1273;24448;-56
2024/03/26 10:06:23;;;;;;;2.80;1.40;;;;;;;15.18;41.82;100947.06;107114;1256;25409;-55
2024/03/26 10:08:52;;;;;;;4.20;2.00;;;;;;;15.23;41.97;100935.17;107150;1261;25424;-55
2024/03/26 10:11:19;;;;;;;3.40;1.40;;;;;;;15.30;41.88;100934.05;106739;1262;24380;-57
2024/03/26 10:13:46;;;;;;;2.40;1.20;;;;;;;15.32;41.05;100935.36;107046;1272;25427;-56
2024/03/26 10:16:13;;;;;;;3.20;1.60;;;;;;;15.36;40.90;100934.84;107155;1267;25348;-56
2024/03/26 10:18:41;;;;;;;4.30;1.20;;;;;;;15.44;41.31;100950.48;106443;1266;1003714;-56
2024/03/26 10:21:08;;;;;;;2.70;1.70;;;;;;;15.48;41.45;100949.98;107163;1256;25442;-57
2024/03/26 10:23:35;;;;;;;2.60;1.60;;;;;;;15.51;41.65;100951.09;106466;1266;1002855;-56
2024/03/26 10:26:02;;;;;;;2.90;1.60;;;;;;;15.53;41.12;100961.52;107158;1263;25517;-56
2024/03/26 10:28:30;;;;;;;2.90;1.60;;;;;;;15.56;40.24;100964.19;107131;1266;25411;-56
2024/03/26 10:30:57;;;;;;;3.50;2.00;;;;;;;15.61;40.84;100974.10;106828;1273;25334;-57
2024/03/26 10:33:24;;;;;;;2.60;1.80;;;;;;;15.68;41.31;100972.98;107158;1267;26609;-57
2024/03/26 10:35:52;;;;;;;3.40;1.40;;;;;;;15.74;40.97;100974.66;107115;1260;22531;-57
2024/03/26 10:38:20;;;;;;;2.10;1.40;;;;;;;15.77;40.97;100979.24;106112;1274;1003792;-56
2024/03/26 10:41:09;;;;;;;3.80;1.60;;;;;;;15.80;40.36;100975.45;107101;1270;24308;-57
2024/03/26 10:43:38;;;;;;;2.10;1.20;;;;;;;15.83;40.25;100980.95;106961;1272;24276;-56
2024/03/26 10:46:05;;;;;;;2.40;1.20;;;;;;;15.87;40.15;100984.82;107088;1270;25418;-56
2024/03/26 10:48:33;;;;;;;3.60;1.30;;;;;;;15.89;40.33;100987.52;106929;1267;24388;-56
2024/03/26 10:51:03;;;;;;;3.00;1.60;;;;;;;15.92;40.20;100989.16;107034;1269;22527;-56
2024/03/26 10:53:30;;;;;;;2.60;1.40;;;;;;;15.97;40.38;100991.91;107278;1264;22542;-56
2024/03/26 10:55:58;;;;;;;2.30;1.40;;;;;;;16.03;40.91;100991.52;107200;1256;25319;-56
2024/03/26 10:58:25;;;;;;;2.30;1.40;;;;;;;16.05;40.44;100992.27;106848;1268;25500;-56
2024/03/26 11:00:52;;;;;;;2.20;1.20;;;;;;;16.07;39.62;100989.90;107119;1275;25338;-56
2024/03/26 11:03:19;;;;;;;3.30;1.40;;;;;;;16.11;39.06;100994.13;107117;1267;25568;-56
2024/03/26 11:05:46;;;;;;;2.40;1.40;;;;;;;16.17;38.38;100997.21;106510;1267;1003041;-57
2024/03/26 11:08:17;;;;;;;2.60;1.50;;;;;;;16.23;38.12;100993.14;107264;1267;25555;-56
2024/03/26 11:11:06;;;;;;;2.00;1.50;;;;;;;16.26;37.44;100999.29;107302;1270;23885;-57
2024/03/26 11:13:35;;;;;;;2.90;1.10;;;;;;;16.28;37.14;101000.80;107086;1272;24199;-56
2024/03/26 11:16:03;;;;;;;1.40;1.20;;;;;;;16.30;37.66;101008.05;107279;1267;22625;-56
2024/03/26 11:18:36;;;;;;;1.80;1.20;;;;;;;16.34;38.13;101014.40;106361;1270;1003656;-57